Wetterdaten: Woche 30.06.03 - 06.07.03 (KW27)
Datum Zeit Temperatur Luftfeuchte Luftdruck Regenmenge Wind Richtung Taupunkt Windchill
30.06.2003 00:00 19.0 C 71 % 1008.6 hPa 0.0 l/m 2.7 km/h (1 Bft) O-SO 13.6 C 19.0 C
30.06.2003 01:00 18.6 C 76 % 1008.6 hPa 0.0 l/m 3.6 km/h (1 Bft) O-SO 14.3 C 18.6 C
30.06.2003 02:00 18.0 C 77 % 1008.6 hPa 0.0 l/m 1.3 km/h (1 Bft) O-SO 13.9 C 18.0 C
30.06.2003 03:00 17.3 C 80 % 1008.4 hPa 0.0 l/m 0.6 km/h (0 Bft) O-SO 13.8 C 17.3 C
30.06.2003 04:00 16.4 C 85 % 1007.7 hPa 0.0 l/m 0.5 km/h (0 Bft) O-SO 13.9 C 16.4 C
30.06.2003 05:00 15.6 C 88 % 1007.6 hPa 0.0 l/m 0.0 km/h (0 Bft) N 13.6 C 15.6 C
30.06.2003 06:00 15.9 C 88 % 1007.6 hPa 0.0 l/m 0.3 km/h (0 Bft) O-SO 13.9 C 15.9 C
30.06.2003 07:00 17.8 C 80 % 1007.6 hPa 0.0 l/m 0.0 km/h (0 Bft) N 14.1 C 17.8 C
30.06.2003 08:00 19.9 C 69 % 1007.5 hPa 0.0 l/m 0.2 km/h (0 Bft) NW 13.9 C 19.9 C
30.06.2003 09:00 23.1 C 58 % 1006.5 hPa 0.0 l/m 1.0 km/h (0 Bft) W-NW 14.4 C 23.1 C
30.06.2003 10:00 25.9 C 46 % 1006.3 hPa 0.0 l/m 3.1 km/h (1 Bft) W-NW 13.5 C 25.9 C
30.06.2003 11:00 28.0 C 41 % 1005.5 hPa 0.0 l/m 1.2 km/h (1 Bft) W-NW 13.5 C 28.0 C
30.06.2003 12:00 30.6 C 32 % 1005.1 hPa 0.0 l/m 1.3 km/h (1 Bft) O-SO 11.8 C 30.6 C
30.06.2003 13:00 33.3 C 26 % 1004.5 hPa 0.0 l/m 6.5 km/h (2 Bft) SO 11.2 C 33.3 C
30.06.2003 14:00 35.9 C 25 % 1003.6 hPa 0.0 l/m 13.1 km/h (3 Bft) SO 12.8 C 35.9 C
30.06.2003 15:00 34.6 C 25 % 1003.4 hPa 0.0 l/m 22.5 km/h (4 Bft) NW 11.6 C 34.6 C
30.06.2003 16:00 33.8 C 26 % 1003.4 hPa 0.0 l/m 29.9 km/h (5 Bft) W-NW 11.3 C 33.8 C
30.06.2003 17:00 33.6 C 25 % 1003.4 hPa 0.0 l/m 19.5 km/h (3 Bft) W-NW 11.0 C 33.6 C
30.06.2003 18:00 33.3 C 29 % 1003.4 hPa 0.0 l/m 14.9 km/h (3 Bft) NW 12.7 C 33.3 C
30.06.2003 19:00 32.0 C 27 % 1003.2 hPa 0.0 l/m 17.5 km/h (3 Bft) NW 10.9 C 32.0 C
30.06.2003 20:00 29.1 C 36 % 1003.5 hPa 0.0 l/m 25.0 km/h (4 Bft) NW 12.5 C 29.1 C
30.06.2003 21:00 23.9 C 51 % 1005.0 hPa 0.0 l/m 42.6 km/h (6 Bft) NW 13.1 C 23.9 C
30.06.2003 22:00 22.0 C 60 % 1006.5 hPa 0.0 l/m 21.0 km/h (4 Bft) NW 13.8 C 22.0 C
30.06.2003 23:00 21.0 C 66 % 1006.5 hPa 0.0 l/m 3.6 km/h (1 Bft) W-NW 14.4 C 21.0 C
01.07.2003 00:00 19.2 C 83 % 1007.4 hPa 4.8 l/m 3.0 km/h (1 Bft) O 16.1 C 19.2 C
01.07.2003 01:00 18.0 C 96 % 1007.6 hPa 2.7 l/m 1.5 km/h (1 Bft) NW 17.4 C 18.0 C
01.07.2003 02:00 17.9 C 94 % 1007.6 hPa 0.0 l/m 1.0 km/h (0 Bft) NW 16.9 C 17.9 C
01.07.2003 03:00 17.6 C 95 % 1007.6 hPa 0.3 l/m 0.5 km/h (0 Bft) N-NO 16.7 C 17.6 C
01.07.2003 04:00 17.4 C 95 % 1007.0 hPa 0.6 l/m 0.6 km/h (0 Bft) NO 16.7 C 17.4 C
01.07.2003 05:00 16.9 C 100 % 1006.5 hPa 1.2 l/m 3.1 km/h (1 Bft) O-SO 16.9 C 16.9 C
01.07.2003 06:00 16.5 C 100 % 1006.6 hPa 0.9 l/m 1.2 km/h (1 Bft) SO 16.5 C 16.5 C
01.07.2003 07:00 15.8 C 99 % 1007.5 hPa 1.5 l/m 8.7 km/h (2 Bft) NW 15.7 C 15.8 C
01.07.2003 08:00 14.5 C 94 % 1008.6 hPa 1.2 l/m 4.9 km/h (1 Bft) NW 13.6 C 14.5 C
01.07.2003 09:00 14.8 C 96 % 1009.1 hPa 0.0 l/m 1.8 km/h (1 Bft) SO 14.1 C 14.8 C
01.07.2003 10:00 15.1 C 96 % 1009.3 hPa 0.6 l/m 1.9 km/h (1 Bft) SO 14.5 C 15.1 C
01.07.2003 11:00 15.5 C 96 % 1009.2 hPa 0.9 l/m 2.2 km/h (1 Bft) SO 14.8 C 15.5 C
01.07.2003 12:00 15.4 C 96 % 1008.7 hPa 1.8 l/m 6.6 km/h (2 Bft) SO 14.8 C 15.4 C
01.07.2003 13:00 15.4 C 95 % 1008.6 hPa 0.6 l/m 2.5 km/h (1 Bft) S 14.6 C 15.4 C
01.07.2003 14:00 15.8 C 93 % 1008.0 hPa 0.3 l/m 1.8 km/h (1 Bft) SO 14.6 C 15.8 C
01.07.2003 15:00 16.2 C 89 % 1007.6 hPa 0.0 l/m 0.0 km/h (0 Bft) N 14.3 C 16.2 C
01.07.2003 16:00 16.4 C 92 % 1007.6 hPa 0.3 l/m 0.4 km/h (0 Bft) SO 15.0 C 16.4 C
01.07.2003 17:00 17.1 C 87 % 1007.3 hPa 0.0 l/m 0.1 km/h (0 Bft) W 14.9 C 17.1 C
01.07.2003 18:00 13.6 C 88 % 1008.5 hPa 1.2 l/m 26.0 km/h (4 Bft) NW 11.7 C 13.6 C
01.07.2003 19:00 14.4 C 94 % 1008.6 hPa 0.0 l/m 1.3 km/h (1 Bft) O-SO 13.4 C 14.4 C
01.07.2003 20:00 14.4 C 88 % 1008.6 hPa 0.0 l/m 0.9 km/h (0 Bft) SO 12.5 C 14.4 C
01.07.2003 21:00 13.5 C 95 % 1008.6 hPa 0.0 l/m 0.2 km/h (0 Bft) SO 12.7 C 13.5 C
01.07.2003 22:00 13.3 C 98 % 1009.0 hPa 1.8 l/m 2.1 km/h (1 Bft) NW 13.1 C 13.3 C
01.07.2003 23:00 12.8 C 100 % 1009.0 hPa 0.3 l/m 1.1 km/h (1 Bft) W-NW 12.8 C 12.8 C
02.07.2003 00:00 12.1 C 100 % 1009.0 hPa 0.0 l/m 0.5 km/h (0 Bft) O 12.1 C 12.1 C
02.07.2003 01:00 12.8 C 100 % 1009.3 hPa 0.0 l/m 0.0 km/h (0 Bft) N 12.8 C 12.8 C
02.07.2003 02:00 13.1 C 100 % 1009.1 hPa 0.0 l/m 0.0 km/h (0 Bft) N 13.1 C 13.1 C
02.07.2003 03:00 13.4 C 100 % 1009.7 hPa 0.6 l/m 0.0 km/h (0 Bft) N 13.4 C 13.4 C
02.07.2003 04:00 13.3 C 100 % 1009.6 hPa 0.0 l/m 0.1 km/h (0 Bft) W-NW 13.3 C 13.3 C
02.07.2003 05:00 13.4 C 100 % 1009.7 hPa 0.9 l/m 0.4 km/h (0 Bft) SW 13.4 C 13.4 C
02.07.2003 06:00 13.3 C 100 % 1009.7 hPa 0.9 l/m 1.9 km/h (1 Bft) W-NW 13.3 C 13.3 C
02.07.2003 07:00 13.9 C 99 % 1009.7 hPa 0.0 l/m 0.2 km/h (0 Bft) N 13.7 C 13.9 C
02.07.2003 08:00 15.1 C 96 % 1009.7 hPa 0.0 l/m 0.4 km/h (0 Bft) SO 14.5 C 15.1 C
02.07.2003 09:00 16.1 C 83 % 1009.7 hPa 0.0 l/m 3.0 km/h (1 Bft) W-NW 13.3 C 16.1 C
02.07.2003 10:00 17.1 C 70 % 1009.7 hPa 0.0 l/m 12.6 km/h (3 Bft) NW 11.5 C 17.1 C
02.07.2003 11:00 18.3 C 59 % 1009.7 hPa 0.0 l/m 19.4 km/h (3 Bft) NW 10.1 C 18.3 C
02.07.2003 12:00 18.8 C 57 % 1009.7 hPa 0.0 l/m 7.3 km/h (2 Bft) W-NW 10.1 C 18.8 C
02.07.2003 13:00 20.4 C 57 % 1009.7 hPa 0.0 l/m 11.5 km/h (2 Bft) W-NW 11.5 C 20.4 C
02.07.2003 14:00 20.8 C 48 % 1009.3 hPa 0.0 l/m 30.1 km/h (5 Bft) NW 9.5 C 20.8 C
02.07.2003 15:00 21.8 C 46 % 1008.9 hPa 0.0 l/m 22.8 km/h (4 Bft) NW 9.5 C 21.8 C
02.07.2003 16:00 23.1 C 41 % 1008.6 hPa 0.0 l/m 24.4 km/h (4 Bft) NW 9.2 C 23.1 C
02.07.2003 17:00 23.7 C 39 % 1008.5 hPa 0.0 l/m 23.5 km/h (4 Bft) NW 8.7 C 23.7 C
02.07.2003 18:00 23.8 C 38 % 1007.7 hPa 0.0 l/m 19.5 km/h (3 Bft) NW 8.6 C 23.8 C
02.07.2003 19:00 22.8 C 41 % 1008.4 hPa 0.0 l/m 13.1 km/h (3 Bft) NW 8.7 C 22.8 C
02.07.2003 20:00 21.4 C 47 % 1008.5 hPa 0.0 l/m 6.3 km/h (2 Bft) NW 9.5 C 21.4 C
02.07.2003 21:00 18.2 C 63 % 1008.6 hPa 0.0 l/m 5.9 km/h (2 Bft) O-SO 10.9 C 18.2 C
02.07.2003 22:00 16.6 C 73 % 1009.2 hPa 0.0 l/m 4.1 km/h (1 Bft) O-SO 11.8 C 16.6 C
02.07.2003 23:00 16.1 C 76 % 1009.7 hPa 0.0 l/m 2.2 km/h (1 Bft) O-SO 12.0 C 16.1 C
03.07.2003 00:00 16.0 C 76 % 1009.7 hPa 0.0 l/m 1.4 km/h (1 Bft) O-SO 11.9 C 16.0 C
03.07.2003 01:00 16.3 C 76 % 1009.7 hPa 0.0 l/m 6.0 km/h (2 Bft) NW 12.0 C 16.3 C
03.07.2003 02:00 15.2 C 85 % 1010.4 hPa 2.1 l/m 18.6 km/h (3 Bft) NW 12.4 C 15.2 C
03.07.2003 03:00 14.4 C 99 % 1010.7 hPa 0.6 l/m 2.3 km/h (1 Bft) NW 14.2 C 14.4 C
03.07.2003 04:00 14.1 C 99 % 1010.7 hPa 0.3 l/m 0.8 km/h (0 Bft) W-NW 13.9 C 14.1 C
03.07.2003 05:00 14.1 C 98 % 1011.1 hPa 0.0 l/m 2.7 km/h (1 Bft) W-NW 13.7 C 14.1 C
03.07.2003 06:00 13.8 C 98 % 1011.7 hPa 0.3 l/m 3.3 km/h (1 Bft) NW 13.5 C 13.8 C
03.07.2003 07:00 14.0 C 95 % 1011.7 hPa 0.3 l/m 0.3 km/h (0 Bft) N 13.2 C 14.0 C
03.07.2003 08:00 14.8 C 91 % 1012.7 hPa 0.0 l/m 4.0 km/h (1 Bft) W-NW 13.3 C 14.8 C
03.07.2003 09:00 15.9 C 78 % 1012.8 hPa 0.0 l/m 16.4 km/h (3 Bft) NW 11.9 C 15.9 C
03.07.2003 10:00 16.8 C 68 % 1012.8 hPa 0.0 l/m 16.1 km/h (3 Bft) NW 10.8 C 16.8 C
03.07.2003 11:00 17.2 C 64 % 1012.8 hPa 0.0 l/m 24.6 km/h (4 Bft) NW 10.4 C 17.2 C
03.07.2003 12:00 17.9 C 61 % 1012.8 hPa 0.0 l/m 26.1 km/h (4 Bft) NW 10.3 C 17.9 C
03.07.2003 13:00 19.2 C 56 % 1012.8 hPa 0.0 l/m 16.7 km/h (3 Bft) NW 10.2 C 19.2 C
03.07.2003 14:00 19.4 C 55 % 1012.8 hPa 0.0 l/m 20.9 km/h (4 Bft) NW 10.0 C 19.4 C
03.07.2003 15:00 19.4 C 59 % 1013.5 hPa 0.6 l/m 12.2 km/h (2 Bft) SO 11.1 C 19.4 C
03.07.2003 16:00 18.5 C 68 % 1013.8 hPa 0.0 l/m 13.6 km/h (3 Bft) NW 12.4 C 18.5 C
03.07.2003 17:00 18.4 C 59 % 1013.8 hPa 0.0 l/m 24.4 km/h (4 Bft) NW 10.3 C 18.4 C
03.07.2003 18:00 18.3 C 57 % 1013.8 hPa 0.0 l/m 25.8 km/h (4 Bft) NW 9.7 C 18.3 C
03.07.2003 19:00 17.6 C 60 % 1013.8 hPa 0.0 l/m 17.1 km/h (3 Bft) NW 9.7 C 17.6 C
03.07.2003 20:00 17.5 C 62 % 1013.8 hPa 0.0 l/m 5.2 km/h (1 Bft) NW 10.1 C 17.5 C
03.07.2003 21:00 15.9 C 77 % 1014.5 hPa 0.0 l/m 1.3 km/h (1 Bft) SO 11.9 C 15.9 C
03.07.2003 22:00 15.4 C 82 % 1014.8 hPa 0.0 l/m 0.0 km/h (0 Bft) N 12.4 C 15.4 C
03.07.2003 23:00 14.6 C 86 % 1015.6 hPa 0.0 l/m 2.3 km/h (1 Bft) NW 12.3 C 14.6 C
04.07.2003 00:00 14.7 C 78 % 1014.9 hPa 0.0 l/m 13.3 km/h (3 Bft) NW 10.9 C 14.7 C
04.07.2003 01:00 14.3 C 77 % 1015.9 hPa 0.0 l/m 2.6 km/h (1 Bft) NW 10.3 C 14.3 C
04.07.2003 02:00 14.3 C 74 % 1015.9 hPa 0.0 l/m 3.4 km/h (1 Bft) NW 9.7 C 14.3 C
04.07.2003 03:00 13.6 C 84 % 1015.9 hPa 0.0 l/m 0.6 km/h (0 Bft) W-NW 11.0 C 13.6 C
04.07.2003 04:00 13.9 C 77 % 1015.9 hPa 0.0 l/m 0.4 km/h (0 Bft) NW 10.0 C 13.9 C
04.07.2003 05:00 13.8 C 79 % 1015.9 hPa 0.0 l/m 1.0 km/h (0 Bft) NW 10.3 C 13.8 C
04.07.2003 06:00 13.7 C 79 % 1015.9 hPa 0.0 l/m 9.4 km/h (2 Bft) NW 10.1 C 13.7 C
04.07.2003 07:00 13.7 C 82 % 1016.8 hPa 0.0 l/m 14.9 km/h (3 Bft) NW 10.6 C 13.7 C
04.07.2003 08:00 13.9 C 78 % 1016.9 hPa 0.0 l/m 11.0 km/h (2 Bft) NW 10.1 C 13.9 C
04.07.2003 09:00 14.2 C 78 % 1017.7 hPa 0.0 l/m 16.4 km/h (3 Bft) NW 10.3 C 14.2 C
04.07.2003 10:00 15.1 C 74 % 1018.0 hPa 0.0 l/m 18.4 km/h (3 Bft) NW 10.4 C 15.1 C
04.07.2003 11:00 15.5 C 71 % 1017.6 hPa 0.0 l/m 14.8 km/h (3 Bft) NW 10.3 C 15.5 C
04.07.2003 12:00 16.5 C 67 % 1017.1 hPa 0.3 l/m 17.0 km/h (3 Bft) W-NW 10.3 C 16.5 C
04.07.2003 13:00 18.4 C 54 % 1017.0 hPa 0.0 l/m 20.6 km/h (4 Bft) NW 8.8 C 18.4 C
04.07.2003 14:00 15.0 C 82 % 1017.6 hPa 4.8 l/m 15.6 km/h (3 Bft) NW 11.8 C 15.0 C
04.07.2003 15:00 17.5 C 67 % 1016.9 hPa 0.0 l/m 21.2 km/h (4 Bft) NW 11.2 C 17.5 C
04.07.2003 16:00 18.0 C 58 % 1016.9 hPa 0.0 l/m 18.7 km/h (3 Bft) NW 9.7 C 18.0 C
04.07.2003 17:00 19.1 C 53 % 1016.9 hPa 0.0 l/m 18.2 km/h (3 Bft) NW 9.1 C 19.1 C
04.07.2003 18:00 17.2 C 59 % 1017.1 hPa 2.4 l/m 19.7 km/h (3 Bft) NW 8.8 C 17.2 C
04.07.2003 19:00 14.1 C 94 % 1018.0 hPa 1.5 l/m 6.4 km/h (2 Bft) NW 13.1 C 14.1 C
04.07.2003 20:00 14.7 C 90 % 1018.0 hPa 0.0 l/m 2.0 km/h (1 Bft) W-NW 13.1 C 14.7 C
04.07.2003 21:00 13.8 C 96 % 1018.5 hPa 0.0 l/m 3.0 km/h (1 Bft) SO 13.1 C 13.8 C
04.07.2003 22:00 13.5 C 98 % 1019.0 hPa 0.0 l/m 4.2 km/h (1 Bft) SO 13.2 C 13.5 C
04.07.2003 23:00 13.2 C 99 % 1019.0 hPa 0.0 l/m 0.7 km/h (0 Bft) SO 13.1 C 13.2 C
05.07.2003 00:00 12.8 C 100 % 1019.0 hPa 0.0 l/m 0.2 km/h (0 Bft) N 12.8 C 12.8 C
05.07.2003 01:00 12.9 C 100 % 1019.0 hPa 0.0 l/m 2.0 km/h (1 Bft) SO 12.9 C 12.9 C
05.07.2003 02:00 13.2 C 99 % 1019.0 hPa 0.0 l/m 0.4 km/h (0 Bft) SW 13.0 C 13.2 C
05.07.2003 03:00 13.3 C 98 % 1019.0 hPa 0.0 l/m 0.1 km/h (0 Bft) N 13.0 C 13.3 C
05.07.2003 04:00 13.3 C 97 % 1018.6 hPa 0.0 l/m 0.0 km/h (0 Bft) N 12.9 C 13.3 C
05.07.2003 05:00 13.3 C 96 % 1018.1 hPa 0.0 l/m 0.0 km/h (0 Bft) N 12.8 C 13.3 C
05.07.2003 06:00 13.6 C 96 % 1018.0 hPa 0.0 l/m 0.1 km/h (0 Bft) N 13.0 C 13.6 C
05.07.2003 07:00 14.2 C 93 % 1018.6 hPa 0.0 l/m 0.2 km/h (0 Bft) O 13.1 C 14.2 C
05.07.2003 08:00 15.1 C 85 % 1019.0 hPa 0.0 l/m 3.6 km/h (1 Bft) W-NW 12.5 C 15.1 C
05.07.2003 09:00 15.9 C 75 % 1019.0 hPa 0.0 l/m 8.9 km/h (2 Bft) NW 11.5 C 15.9 C
05.07.2003 10:00 17.1 C 66 % 1019.0 hPa 0.0 l/m 15.3 km/h (3 Bft) NW 10.6 C 17.1 C
05.07.2003 11:00 18.0 C 57 % 1019.0 hPa 0.0 l/m 13.2 km/h (3 Bft) NW 9.3 C 18.0 C
05.07.2003 12:00 18.3 C 55 % 1019.0 hPa 0.0 l/m 9.4 km/h (2 Bft) W-NW 9.1 C 18.3 C
05.07.2003 13:00 18.0 C 53 % 1019.0 hPa 0.0 l/m 10.0 km/h (2 Bft) NW 8.3 C 18.0 C
05.07.2003 14:00 19.6 C 49 % 1018.9 hPa 0.0 l/m 17.0 km/h (3 Bft) NW 8.7 C 19.6 C
05.07.2003 15:00 20.7 C 47 % 1018.0 hPa 0.0 l/m 18.7 km/h (3 Bft) NW 8.9 C 20.7 C
05.07.2003 16:00 22.1 C 42 % 1018.0 hPa 0.0 l/m 20.4 km/h (4 Bft) NW 8.7 C 22.1 C
05.07.2003 17:00 22.8 C 41 % 1018.0 hPa 0.0 l/m 17.4 km/h (3 Bft) NW 9.0 C 22.8 C
05.07.2003 18:00 22.4 C 45 % 1018.0 hPa 0.0 l/m 13.4 km/h (3 Bft) NW 9.8 C 22.4 C
05.07.2003 19:00 21.4 C 49 % 1017.7 hPa 0.0 l/m 17.3 km/h (3 Bft) NW 10.2 C 21.4 C
05.07.2003 20:00 19.8 C 55 % 1018.0 hPa 0.0 l/m 7.7 km/h (2 Bft) W-NW 10.5 C 19.8 C
05.07.2003 21:00 18.3 C 58 % 1018.1 hPa 0.0 l/m 1.0 km/h (0 Bft) W-NW 9.8 C 18.3 C
05.07.2003 22:00 17.4 C 61 % 1019.0 hPa 0.0 l/m 0.0 km/h (0 Bft) N 9.7 C 17.4 C
05.07.2003 23:00 16.6 C 66 % 1019.0 hPa 0.0 l/m 0.0 km/h (0 Bft) N 10.2 C 16.6 C
06.07.2003 00:00 15.2 C 75 % 1019.0 hPa 0.0 l/m 0.0 km/h (0 Bft) N 10.7 C 15.2 C
06.07.2003 01:00 13.7 C 84 % 1019.0 hPa 0.0 l/m 1.5 km/h (1 Bft) O-SO 11.1 C 13.7 C
06.07.2003 02:00 13.4 C 88 % 1019.0 hPa 0.0 l/m 0.6 km/h (0 Bft) O-SO 11.5 C 13.4 C
06.07.2003 03:00 12.7 C 93 % 1019.0 hPa 0.0 l/m 0.0 km/h (0 Bft) N 11.5 C 12.7 C
06.07.2003 04:00 12.9 C 92 % 1019.0 hPa 0.0 l/m 0.0 km/h (0 Bft) N 11.7 C 12.9 C
06.07.2003 05:00 13.0 C 88 % 1019.0 hPa 0.0 l/m 0.0 km/h (0 Bft) N 10.9 C 13.0 C
06.07.2003 06:00 13.2 C 84 % 1019.2 hPa 0.0 l/m 0.1 km/h (0 Bft) N 10.5 C 13.2 C
06.07.2003 07:00 13.6 C 82 % 1019.8 hPa 0.0 l/m 1.4 km/h (1 Bft) W-NW 10.5 C 13.6 C
06.07.2003 08:00 14.9 C 75 % 1020.0 hPa 0.0 l/m 1.2 km/h (1 Bft) W-NW 10.5 C 14.9 C
06.07.2003 09:00 16.7 C 68 % 1020.0 hPa 0.0 l/m 1.6 km/h (1 Bft) NW 10.8 C 16.7 C
06.07.2003 10:00 18.8 C 59 % 1020.0 hPa 0.0 l/m 2.1 km/h (1 Bft) W-NW 10.6 C 18.8 C
06.07.2003 11:00 20.7 C 51 % 1020.0 hPa 0.0 l/m 1.6 km/h (1 Bft) NW 10.3 C 20.7 C
06.07.2003 12:00 22.0 C 43 % 1019.6 hPa 0.0 l/m 3.9 km/h (1 Bft) NW 8.9 C 22.0 C
06.07.2003 13:00 23.7 C 38 % 1019.0 hPa 0.0 l/m 5.0 km/h (1 Bft) NW 8.6 C 23.7 C
06.07.2003 14:00 24.6 C 37 % 1019.0 hPa 0.0 l/m 2.7 km/h (1 Bft) N-NW 9.0 C 24.6 C
06.07.2003 15:00 26.4 C 34 % 1019.0 hPa 0.0 l/m 5.1 km/h (1 Bft) N-NW 9.1 C 26.4 C
06.07.2003 16:00 26.1 C 34 % 1019.0 hPa 0.0 l/m 5.4 km/h (1 Bft) O-SO 8.9 C 26.1 C
06.07.2003 17:00 26.0 C 36 % 1019.0 hPa 0.0 l/m 2.3 km/h (1 Bft) O-SO 9.5 C 26.0 C
06.07.2003 18:00 25.6 C 39 % 1019.0 hPa 0.0 l/m 1.6 km/h (1 Bft) N 10.6 C 25.6 C
06.07.2003 19:00 24.0 C 44 % 1019.0 hPa 0.0 l/m 0.1 km/h (0 Bft) N 10.9 C 24.0 C
06.07.2003 20:00 21.0 C 57 % 1019.9 hPa 0.0 l/m 6.6 km/h (2 Bft) O-SO 12.0 C 21.0 C
06.07.2003 21:00 18.5 C 68 % 1020.0 hPa 0.0 l/m 2.7 km/h (1 Bft) O-SO 12.4 C 18.5 C
06.07.2003 22:00 16.8 C 76 % 1020.6 hPa 0.0 l/m 0.0 km/h (0 Bft) N 12.6 C 16.8 C
06.07.2003 23:00 15.9 C 81 % 1021.1 hPa 0.0 l/m 0.2 km/h (0 Bft) S 12.7 C 15.9 C
Min-Datum _ 02.07.03 30.06.03 30.06.03 - 30.06.03 - 02.07.03 02.07.03
_ Min-Zeit 00:16 13:27 19:09 - 00:00 - 18:49 00:16
Minimum _ 11.9 C 25 % 1002.4 hPa - 0.0 km/h (0 Bft) - 5.5 C 11.9 C
Max-Datum _ 30.06.03 01.07.03 06.07.03 04.07.03 30.06.03 - 01.07.03 30.06.03
_ Max-Zeit 14:48 05:04 22:28 14:13 21:57 - 01:43 14:48
Maximum _ 36.4 C 100 % 1021.1 hPa 4.8 l/m 58.0 km/h
NW (7 Bft)
- 18.0 C 36.4 C
Durchschnitt _ 17.9 C 72 % 1013.0 hPa #36.6 l/m 7.5 km/h (2 Bft) NW 11.9 C 17.9 C

Durchschnitt Minimum Temp.17.1 C
Durchschnitt Maximum Temp.18.8 C
© Kaiko 2003